sensor_id;sensor_type;location;lat;lon;timestamp;temperature;humidity
72440;DHT22;60446;50.752;4.352;2023-03-24T00:00:33;11.20;85.20
72440;DHT22;60446;50.752;4.352;2023-03-24T00:03:01;11.20;85.30
72440;DHT22;60446;50.752;4.352;2023-03-24T00:05:29;11.20;85.30
72440;DHT22;60446;50.752;4.352;2023-03-24T00:07:57;11.20;85.20
72440;DHT22;60446;50.752;4.352;2023-03-24T00:10:29;11.20;85.20
72440;DHT22;60446;50.752;4.352;2023-03-24T00:13:00;11.20;85.30
72440;DHT22;60446;50.752;4.352;2023-03-24T00:15:28;11.20;85.20
72440;DHT22;60446;50.752;4.352;2023-03-24T00:17:56;11.20;85.10
72440;DHT22;60446;50.752;4.352;2023-03-24T00:20:24;11.30;84.70
72440;DHT22;60446;50.752;4.352;2023-03-24T00:22:54;11.30;84.60
72440;DHT22;60446;50.752;4.352;2023-03-24T00:25:30;11.30;84.60
72440;DHT22;60446;50.752;4.352;2023-03-24T00:28:02;11.30;85.10
72440;DHT22;60446;50.752;4.352;2023-03-24T00:30:33;11.30;85.00
72440;DHT22;60446;50.752;4.352;2023-03-24T00:33:01;11.40;84.40
72440;DHT22;60446;50.752;4.352;2023-03-24T00:35:30;11.40;83.60
72440;DHT22;60446;50.752;4.352;2023-03-24T00:37:57;11.50;83.90
72440;DHT22;60446;50.752;4.352;2023-03-24T00:40:24;11.50;84.10
72440;DHT22;60446;50.752;4.352;2023-03-24T00:42:51;11.40;84.40
72440;DHT22;60446;50.752;4.352;2023-03-24T00:45:20;11.40;84.60
72440;DHT22;60446;50.752;4.352;2023-03-24T00:47:50;11.40;84.80
72440;DHT22;60446;50.752;4.352;2023-03-24T00:50:21;11.40;84.80
72440;DHT22;60446;50.752;4.352;2023-03-24T00:52:59;11.40;84.80
72440;DHT22;60446;50.752;4.352;2023-03-24T00:55:27;11.40;84.90
72440;DHT22;60446;50.752;4.352;2023-03-24T00:57:55;11.40;84.80
72440;DHT22;60446;50.752;4.352;2023-03-24T01:00:24;11.40;84.90
72440;DHT22;60446;50.752;4.352;2023-03-24T01:02:54;11.40;84.80
72440;DHT22;60446;50.752;4.352;2023-03-24T01:05:25;11.40;84.30
72440;DHT22;60446;50.752;4.352;2023-03-24T01:07:58;11.50;84.20
72440;DHT22;60446;50.752;4.352;2023-03-24T01:10:32;11.50;84.10
72440;DHT22;60446;50.752;4.352;2023-03-24T01:13:01;11.50;84.00
72440;DHT22;60446;50.752;4.352;2023-03-24T01:15:32;11.60;83.50
72440;DHT22;60446;50.752;4.352;2023-03-24T01:18:02;11.60;83.40
72440;DHT22;60446;50.752;4.352;2023-03-24T01:20:30;11.70;83.00
72440;DHT22;60446;50.752;4.352;2023-03-24T01:23:00;11.70;82.60
72440;DHT22;60446;50.752;4.352;2023-03-24T01:25:28;11.80;82.30
72440;DHT22;60446;50.752;4.352;2023-03-24T01:27:56;11.80;82.00
72440;DHT22;60446;50.752;4.352;2023-03-24T01:30:26;11.80;81.90
72440;DHT22;60446;50.752;4.352;2023-03-24T01:32:55;11.90;81.50
72440;DHT22;60446;50.752;4.352;2023-03-24T01:35:24;11.90;81.70
72440;DHT22;60446;50.752;4.352;2023-03-24T01:37:55;11.90;81.30
72440;DHT22;60446;50.752;4.352;2023-03-24T01:40:29;11.90;81.10
72440;DHT22;60446;50.752;4.352;2023-03-24T01:42:58;11.90;80.90
72440;DHT22;60446;50.752;4.352;2023-03-24T01:48:13;12.00;81.20
72440;DHT22;60446;50.752;4.352;2023-03-24T01:50:45;12.00;81.40
72440;DHT22;60446;50.752;4.352;2023-03-24T01:53:17;12.00;81.50
72440;DHT22;60446;50.752;4.352;2023-03-24T01:55:46;12.00;81.90
72440;DHT22;60446;50.752;4.352;2023-03-24T01:58:19;11.90;81.60
72440;DHT22;60446;50.752;4.352;2023-03-24T02:01:05;12.00;81.70
72440;DHT22;60446;50.752;4.352;2023-03-24T02:03:45;12.00;81.90
72440;DHT22;60446;50.752;4.352;2023-03-24T02:06:13;11.90;82.50
72440;DHT22;60446;50.752;4.352;2023-03-24T02:08:49;11.90;82.90
72440;DHT22;60446;50.752;4.352;2023-03-24T02:11:24;11.80;82.70
72440;DHT22;60446;50.752;4.352;2023-03-24T02:13:58;11.80;82.70
72440;DHT22;60446;50.752;4.352;2023-03-24T02:19:57;11.70;82.90
72440;DHT22;60446;50.752;4.352;2023-03-24T02:28:42;11.50;80.10
72440;DHT22;60446;50.752;4.352;2023-03-24T02:40:43;10.80;75.90
72440;DHT22;60446;50.752;4.352;2023-03-24T02:43:36;10.60;77.50
72440;DHT22;60446;50.752;4.352;2023-03-24T02:46:23;10.50;78.40
72440;DHT22;60446;50.752;4.352;2023-03-24T02:57:55;10.30;78.70
72440;DHT22;60446;50.752;4.352;2023-03-24T03:00:51;10.20;78.70
72440;DHT22;60446;50.752;4.352;2023-03-24T03:03:48;10.20;78.20
72440;DHT22;60446;50.752;4.352;2023-03-24T03:06:26;10.10;77.60
72440;DHT22;60446;50.752;4.352;2023-03-24T03:08:57;10.10;77.40
72440;DHT22;60446;50.752;4.352;2023-03-24T03:11:26;10.10;77.80
72440;DHT22;60446;50.752;4.352;2023-03-24T03:14:02;10.00;77.80
72440;DHT22;60446;50.752;4.352;2023-03-24T03:16:36;10.00;76.90
72440;DHT22;60446;50.752;4.352;2023-03-24T03:22:05;9.80;77.20
72440;DHT22;60446;50.752;4.352;2023-03-24T03:24:37;9.70;76.60
72440;DHT22;60446;50.752;4.352;2023-03-24T03:27:15;9.60;76.70
72440;DHT22;60446;50.752;4.352;2023-03-24T03:29:49;9.60;76.50
72440;DHT22;60446;50.752;4.352;2023-03-24T03:32:26;9.60;77.00
72440;DHT22;60446;50.752;4.352;2023-03-24T03:35:07;9.60;76.80
72440;DHT22;60446;50.752;4.352;2023-03-24T03:40:41;9.60;77.00
72440;DHT22;60446;50.752;4.352;2023-03-24T03:43:19;9.60;77.40
72440;DHT22;60446;50.752;4.352;2023-03-24T03:45:46;9.60;76.60
72440;DHT22;60446;50.752;4.352;2023-03-24T03:48:16;9.60;77.70
72440;DHT22;60446;50.752;4.352;2023-03-24T03:50:44;9.60;77.30
72440;DHT22;60446;50.752;4.352;2023-03-24T03:53:14;9.70;77.30
72440;DHT22;60446;50.752;4.352;2023-03-24T03:55:43;9.70;77.50
72440;DHT22;60446;50.752;4.352;2023-03-24T03:58:12;9.60;78.10
72440;DHT22;60446;50.752;4.352;2023-03-24T04:00:48;9.60;78.10
72440;DHT22;60446;50.752;4.352;2023-03-24T04:06:42;9.60;76.40
72440;DHT22;60446;50.752;4.352;2023-03-24T04:09:41;9.60;77.00
72440;DHT22;60446;50.752;4.352;2023-03-24T04:12:39;9.70;77.60
72440;DHT22;60446;50.752;4.352;2023-03-24T04:15:34;9.60;77.20
72440;DHT22;60446;50.752;4.352;2023-03-24T04:18:29;9.70;77.20
72440;DHT22;60446;50.752;4.352;2023-03-24T04:35:32;9.60;77.20
72440;DHT22;60446;50.752;4.352;2023-03-24T04:38:24;9.50;76.50
72440;DHT22;60446;50.752;4.352;2023-03-24T04:41:25;9.50;77.10
72440;DHT22;60446;50.752;4.352;2023-03-24T04:44:04;9.50;77.30
72440;DHT22;60446;50.752;4.352;2023-03-24T04:46:41;9.60;77.20
72440;DHT22;60446;50.752;4.352;2023-03-24T04:49:15;9.50;77.40
72440;DHT22;60446;50.752;4.352;2023-03-24T04:51:43;9.50;76.70
72440;DHT22;60446;50.752;4.352;2023-03-24T04:54:18;9.50;76.80
72440;DHT22;60446;50.752;4.352;2023-03-24T04:56:52;9.50;76.90
72440;DHT22;60446;50.752;4.352;2023-03-24T04:59:32;9.40;76.40
72440;DHT22;60446;50.752;4.352;2023-03-24T05:02:02;9.40;76.70
72440;DHT22;60446;50.752;4.352;2023-03-24T05:04:50;9.20;77.10
72440;DHT22;60446;50.752;4.352;2023-03-24T05:07:28;9.10;77.40
72440;DHT22;60446;50.752;4.352;2023-03-24T05:09:58;9.00;77.40
72440;DHT22;60446;50.752;4.352;2023-03-24T05:12:25;8.90;78.10
72440;DHT22;60446;50.752;4.352;2023-03-24T05:15:14;8.80;78.00
72440;DHT22;60446;50.752;4.352;2023-03-24T05:17:44;8.70;78.20
72440;DHT22;60446;50.752;4.352;2023-03-24T05:20:11;8.70;78.20
72440;DHT22;60446;50.752;4.352;2023-03-24T05:22:41;8.70;78.30
72440;DHT22;60446;50.752;4.352;2023-03-24T05:25:09;8.60;78.50
72440;DHT22;60446;50.752;4.352;2023-03-24T05:27:36;8.50;78.60
72440;DHT22;60446;50.752;4.352;2023-03-24T05:30:22;8.60;78.90
72440;DHT22;60446;50.752;4.352;2023-03-24T05:32:55;8.60;78.50
72440;DHT22;60446;50.752;4.352;2023-03-24T05:35:22;8.60;78.90
72440;DHT22;60446;50.752;4.352;2023-03-24T05:37:50;8.50;78.90
72440;DHT22;60446;50.752;4.352;2023-03-24T05:40:18;8.50;79.00
72440;DHT22;60446;50.752;4.352;2023-03-24T05:42:52;8.40;79.30
72440;DHT22;60446;50.752;4.352;2023-03-24T05:45:23;8.40;79.40
72440;DHT22;60446;50.752;4.352;2023-03-24T05:47:51;8.30;79.50
72440;DHT22;60446;50.752;4.352;2023-03-24T05:50:26;8.40;79.30
72440;DHT22;60446;50.752;4.352;2023-03-24T05:52:53;8.30;79.40
72440;DHT22;60446;50.752;4.352;2023-03-24T05:55:37;8.30;79.40
72440;DHT22;60446;50.752;4.352;2023-03-24T05:58:21;8.30;79.30
72440;DHT22;60446;50.752;4.352;2023-03-24T06:00:49;8.30;79.50
72440;DHT22;60446;50.752;4.352;2023-03-24T06:03:29;8.30;79.70
72440;DHT22;60446;50.752;4.352;2023-03-24T06:06:06;8.40;79.90
72440;DHT22;60446;50.752;4.352;2023-03-24T06:08:34;8.50;79.50
72440;DHT22;60446;50.752;4.352;2023-03-24T06:11:02;8.70;78.90
72440;DHT22;60446;50.752;4.352;2023-03-24T06:13:35;8.60;78.80
72440;DHT22;60446;50.752;4.352;2023-03-24T06:16:02;8.60;78.70
72440;DHT22;60446;50.752;4.352;2023-03-24T06:18:37;8.60;78.80
72440;DHT22;60446;50.752;4.352;2023-03-24T06:21:21;8.60;79.00
72440;DHT22;60446;50.752;4.352;2023-03-24T06:24:00;8.80;78.80
72440;DHT22;60446;50.752;4.352;2023-03-24T06:26:29;8.80;78.80
72440;DHT22;60446;50.752;4.352;2023-03-24T06:28:58;8.90;78.30
72440;DHT22;60446;50.752;4.352;2023-03-24T06:31:30;9.00;78.00
72440;DHT22;60446;50.752;4.352;2023-03-24T06:33:58;9.00;77.50
72440;DHT22;60446;50.752;4.352;2023-03-24T06:36:25;9.10;78.00
72440;DHT22;60446;50.752;4.352;2023-03-24T06:38:53;9.10;77.50
72440;DHT22;60446;50.752;4.352;2023-03-24T06:41:21;9.00;77.20
72440;DHT22;60446;50.752;4.352;2023-03-24T06:43:53;9.00;78.00
72440;DHT22;60446;50.752;4.352;2023-03-24T06:46:21;9.00;77.70
72440;DHT22;60446;50.752;4.352;2023-03-24T06:48:48;9.10;77.70
72440;DHT22;60446;50.752;4.352;2023-03-24T06:51:16;9.10;78.00
72440;DHT22;60446;50.752;4.352;2023-03-24T06:53:44;9.20;77.80
72440;DHT22;60446;50.752;4.352;2023-03-24T06:56:12;9.20;77.90
72440;DHT22;60446;50.752;4.352;2023-03-24T06:58:48;9.20;77.80
72440;DHT22;60446;50.752;4.352;2023-03-24T07:01:24;9.10;77.20
72440;DHT22;60446;50.752;4.352;2023-03-24T07:03:51;9.10;78.00
72440;DHT22;60446;50.752;4.352;2023-03-24T07:06:29;9.10;78.20
72440;DHT22;60446;50.752;4.352;2023-03-24T07:09:04;9.30;78.20
72440;DHT22;60446;50.752;4.352;2023-03-24T07:11:31;9.50;77.30
72440;DHT22;60446;50.752;4.352;2023-03-24T07:14:01;9.60;76.70
72440;DHT22;60446;50.752;4.352;2023-03-24T07:16:29;9.80;76.10
72440;DHT22;60446;50.752;4.352;2023-03-24T07:19:20;9.80;75.70
72440;DHT22;60446;50.752;4.352;2023-03-24T07:21:56;9.90;75.10
72440;DHT22;60446;50.752;4.352;2023-03-24T07:24:38;9.90;75.20
72440;DHT22;60446;50.752;4.352;2023-03-24T07:27:25;10.00;74.60
72440;DHT22;60446;50.752;4.352;2023-03-24T07:29:52;10.10;73.70
72440;DHT22;60446;50.752;4.352;2023-03-24T07:32:25;10.10;73.40
72440;DHT22;60446;50.752;4.352;2023-03-24T07:34:54;10.20;73.60
72440;DHT22;60446;50.752;4.352;2023-03-24T07:37:23;10.20;73.40
72440;DHT22;60446;50.752;4.352;2023-03-24T07:39:50;10.30;73.70
72440;DHT22;60446;50.752;4.352;2023-03-24T07:42:17;10.30;72.90
72440;DHT22;60446;50.752;4.352;2023-03-24T07:45:05;10.30;72.70
72440;DHT22;60446;50.752;4.352;2023-03-24T07:47:35;10.30;72.10
72440;DHT22;60446;50.752;4.352;2023-03-24T07:50:04;10.30;73.20
72440;DHT22;60446;50.752;4.352;2023-03-24T07:52:40;10.30;72.90
72440;DHT22;60446;50.752;4.352;2023-03-24T07:55:10;10.30;72.40
72440;DHT22;60446;50.752;4.352;2023-03-24T07:58:00;10.30;73.00
72440;DHT22;60446;50.752;4.352;2023-03-24T08:00:28;10.30;72.80
72440;DHT22;60446;50.752;4.352;2023-03-24T08:03:12;10.40;72.30
72440;DHT22;60446;50.752;4.352;2023-03-24T08:05:46;10.50;72.10
72440;DHT22;60446;50.752;4.352;2023-03-24T08:08:29;10.70;71.70
72440;DHT22;60446;50.752;4.352;2023-03-24T08:10:57;10.70;71.70
72440;DHT22;60446;50.752;4.352;2023-03-24T08:13:25;10.60;71.30
72440;DHT22;60446;50.752;4.352;2023-03-24T08:15:52;10.70;72.00
72440;DHT22;60446;50.752;4.352;2023-03-24T08:18:20;10.70;71.10
72440;DHT22;60446;50.752;4.352;2023-03-24T08:20:49;10.60;71.00
72440;DHT22;60446;50.752;4.352;2023-03-24T08:23:22;10.50;71.80
72440;DHT22;60446;50.752;4.352;2023-03-24T08:25:50;10.60;71.10
72440;DHT22;60446;50.752;4.352;2023-03-24T08:28:17;10.70;70.60
72440;DHT22;60446;50.752;4.352;2023-03-24T08:30:46;10.90;70.10
72440;DHT22;60446;50.752;4.352;2023-03-24T08:33:15;11.00;71.00
72440;DHT22;60446;50.752;4.352;2023-03-24T08:35:42;11.10;69.70
72440;DHT22;60446;50.752;4.352;2023-03-24T08:38:14;11.20;69.40
72440;DHT22;60446;50.752;4.352;2023-03-24T08:40:45;11.10;69.40
72440;DHT22;60446;50.752;4.352;2023-03-24T08:43:14;11.10;70.60
72440;DHT22;60446;50.752;4.352;2023-03-24T08:45:42;11.00;70.60
72440;DHT22;60446;50.752;4.352;2023-03-24T08:48:09;11.00;70.60
72440;DHT22;60446;50.752;4.352;2023-03-24T08:50:40;11.10;70.00
72440;DHT22;60446;50.752;4.352;2023-03-24T08:53:09;11.30;68.80
72440;DHT22;60446;50.752;4.352;2023-03-24T08:55:39;11.40;68.80
72440;DHT22;60446;50.752;4.352;2023-03-24T08:58:15;11.50;69.80
72440;DHT22;60446;50.752;4.352;2023-03-24T09:00:45;11.50;67.90
72440;DHT22;60446;50.752;4.352;2023-03-24T09:03:16;11.40;67.30
72440;DHT22;60446;50.752;4.352;2023-03-24T09:05:49;11.40;68.10
72440;DHT22;60446;50.752;4.352;2023-03-24T09:08:17;11.50;68.90
72440;DHT22;60446;50.752;4.352;2023-03-24T09:10:46;11.70;68.50
72440;DHT22;60446;50.752;4.352;2023-03-24T09:13:14;11.80;66.70
72440;DHT22;60446;50.752;4.352;2023-03-24T09:15:50;11.90;66.60
72440;DHT22;60446;50.752;4.352;2023-03-24T09:18:20;12.00;66.60
72440;DHT22;60446;50.752;4.352;2023-03-24T09:20:48;12.00;66.50
72440;DHT22;60446;50.752;4.352;2023-03-24T09:23:17;11.90;65.00
72440;DHT22;60446;50.752;4.352;2023-03-24T09:25:48;11.90;66.00
72440;DHT22;60446;50.752;4.352;2023-03-24T09:28:17;12.00;66.90
72440;DHT22;60446;50.752;4.352;2023-03-24T09:30:45;12.00;66.90
72440;DHT22;60446;50.752;4.352;2023-03-24T09:33:13;12.10;65.70
72440;DHT22;60446;50.752;4.352;2023-03-24T09:35:40;12.20;64.80
72440;DHT22;60446;50.752;4.352;2023-03-24T09:38:07;12.20;65.10
72440;DHT22;60446;50.752;4.352;2023-03-24T09:40:38;12.40;64.70
72440;DHT22;60446;50.752;4.352;2023-03-24T09:46:38;12.30;64.20
72440;DHT22;60446;50.752;4.352;2023-03-24T09:49:14;12.10;64.50
72440;DHT22;60446;50.752;4.352;2023-03-24T09:51:44;12.00;66.30
72440;DHT22;60446;50.752;4.352;2023-03-24T09:54:21;12.10;66.60
72440;DHT22;60446;50.752;4.352;2023-03-24T09:57:18;12.00;65.80
72440;DHT22;60446;50.752;4.352;2023-03-24T09:59:47;11.80;66.60
72440;DHT22;60446;50.752;4.352;2023-03-24T10:02:17;11.90;66.50
72440;DHT22;60446;50.752;4.352;2023-03-24T10:04:46;12.00;66.60
72440;DHT22;60446;50.752;4.352;2023-03-24T10:07:59;12.10;66.80
72440;DHT22;60446;50.752;4.352;2023-03-24T10:10:40;12.30;66.30
72440;DHT22;60446;50.752;4.352;2023-03-24T10:13:40;12.50;66.00
72440;DHT22;60446;50.752;4.352;2023-03-24T10:16:57;12.40;65.10
72440;DHT22;60446;50.752;4.352;2023-03-24T10:19:55;12.10;65.50
72440;DHT22;60446;50.752;4.352;2023-03-24T10:22:38;11.70;66.20
72440;DHT22;60446;50.752;4.352;2023-03-24T10:25:48;11.50;68.40
72440;DHT22;60446;50.752;4.352;2023-03-24T10:28:42;11.40;68.10
72440;DHT22;60446;50.752;4.352;2023-03-24T10:31:13;11.50;68.00
72440;DHT22;60446;50.752;4.352;2023-03-24T10:33:43;11.60;66.70
72440;DHT22;60446;50.752;4.352;2023-03-24T10:36:20;11.80;66.80
72440;DHT22;60446;50.752;4.352;2023-03-24T10:38:47;12.00;67.30
72440;DHT22;60446;50.752;4.352;2023-03-24T10:41:25;12.20;66.20
72440;DHT22;60446;50.752;4.352;2023-03-24T10:43:55;12.40;65.70
72440;DHT22;60446;50.752;4.352;2023-03-24T10:46:25;12.50;64.30
72440;DHT22;60446;50.752;4.352;2023-03-24T10:51:33;12.70;64.50
72440;DHT22;60446;50.752;4.352;2023-03-24T10:54:19;12.90;64.10
72440;DHT22;60446;50.752;4.352;2023-03-24T10:56:50;13.00;63.30
72440;DHT22;60446;50.752;4.352;2023-03-24T11:02:24;13.40;62.80
72440;DHT22;60446;50.752;4.352;2023-03-24T11:05:02;13.40;60.20
72440;DHT22;60446;50.752;4.352;2023-03-24T11:07:48;13.50;63.10
72440;DHT22;60446;50.752;4.352;2023-03-24T11:10:17;13.60;60.70
72440;DHT22;60446;50.752;4.352;2023-03-24T11:15:28;13.60;61.50
72440;DHT22;60446;50.752;4.352;2023-03-24T11:17:58;13.20;62.10
72440;DHT22;60446;50.752;4.352;2023-03-24T11:20:56;13.10;63.20
72440;DHT22;60446;50.752;4.352;2023-03-24T11:26:13;13.60;62.70
72440;DHT22;60446;50.752;4.352;2023-03-24T11:28:51;13.90;60.90
72440;DHT22;60446;50.752;4.352;2023-03-24T11:31:27;13.80;61.10
72440;DHT22;60446;50.752;4.352;2023-03-24T11:33:57;13.90;60.30
72440;DHT22;60446;50.752;4.352;2023-03-24T11:39:06;13.90;60.50
72440;DHT22;60446;50.752;4.352;2023-03-24T11:41:42;13.90;61.10
72440;DHT22;60446;50.752;4.352;2023-03-24T11:44:17;14.20;62.20
72440;DHT22;60446;50.752;4.352;2023-03-24T11:46:55;14.30;60.60
72440;DHT22;60446;50.752;4.352;2023-03-24T11:49:33;14.20;59.00
72440;DHT22;60446;50.752;4.352;2023-03-24T11:52:07;14.10;60.30
72440;DHT22;60446;50.752;4.352;2023-03-24T11:54:38;14.20;59.60
72440;DHT22;60446;50.752;4.352;2023-03-24T11:57:11;14.20;60.00
72440;DHT22;60446;50.752;4.352;2023-03-24T12:00:03;14.10;59.30
72440;DHT22;60446;50.752;4.352;2023-03-24T12:05:49;13.70;61.20
72440;DHT22;60446;50.752;4.352;2023-03-24T12:08:45;14.30;60.50
72440;DHT22;60446;50.752;4.352;2023-03-24T12:20:43;14.70;59.30
72440;DHT22;60446;50.752;4.352;2023-03-24T12:26:29;14.70;59.60
72440;DHT22;60446;50.752;4.352;2023-03-24T12:42:43;14.70;59.10
72440;DHT22;60446;50.752;4.352;2023-03-24T12:51:34;14.00;60.50
72440;DHT22;60446;50.752;4.352;2023-03-24T12:57:16;13.20;66.10
72440;DHT22;60446;50.752;4.352;2023-03-24T13:00:10;12.90;67.50
72440;DHT22;60446;50.752;4.352;2023-03-24T13:02:53;12.80;69.50
72440;DHT22;60446;50.752;4.352;2023-03-24T13:05:29;12.90;69.90
72440;DHT22;60446;50.752;4.352;2023-03-24T13:08:13;12.80;68.70
72440;DHT22;60446;50.752;4.352;2023-03-24T13:10:45;12.70;67.70
72440;DHT22;60446;50.752;4.352;2023-03-24T13:13:19;12.50;71.10
72440;DHT22;60446;50.752;4.352;2023-03-24T13:15:55;12.20;73.40
72440;DHT22;60446;50.752;4.352;2023-03-24T13:18:43;11.40;73.80
72440;DHT22;60446;50.752;4.352;2023-03-24T13:21:16;10.80;73.80
72440;DHT22;60446;50.752;4.352;2023-03-24T13:23:54;10.40;76.10
72440;DHT22;60446;50.752;4.352;2023-03-24T13:32:50;11.00;77.00
72440;DHT22;60446;50.752;4.352;2023-03-24T13:40:55;12.40;75.60
72440;DHT22;60446;50.752;4.352;2023-03-24T13:43:24;12.50;76.90
72440;DHT22;60446;50.752;4.352;2023-03-24T13:46:05;12.60;76.20
72440;DHT22;60446;50.752;4.352;2023-03-24T13:48:44;12.70;75.30
72440;DHT22;60446;50.752;4.352;2023-03-24T13:51:21;12.70;75.60
72440;DHT22;60446;50.752;4.352;2023-03-24T13:59:39;13.20;77.20
72440;DHT22;60446;50.752;4.352;2023-03-24T14:07:49;13.40;72.50
72440;DHT22;60446;50.752;4.352;2023-03-24T14:15:47;12.70;69.40
72440;DHT22;60446;50.752;4.352;2023-03-24T14:26:07;12.40;70.90
72440;DHT22;60446;50.752;4.352;2023-03-24T14:28:56;12.50;69.30
72440;DHT22;60446;50.752;4.352;2023-03-24T14:31:32;12.70;71.90
72440;DHT22;60446;50.752;4.352;2023-03-24T14:34:17;13.30;70.20
72440;DHT22;60446;50.752;4.352;2023-03-24T14:36:57;13.40;65.80
72440;DHT22;60446;50.752;4.352;2023-03-24T14:42:25;13.50;64.50
72440;DHT22;60446;50.752;4.352;2023-03-24T14:45:01;13.20;65.00
72440;DHT22;60446;50.752;4.352;2023-03-24T14:47:40;13.00;64.30
72440;DHT22;60446;50.752;4.352;2023-03-24T14:50:21;13.10;63.20
72440;DHT22;60446;50.752;4.352;2023-03-24T14:52:58;13.30;64.50
72440;DHT22;60446;50.752;4.352;2023-03-24T14:55:27;13.50;64.10
72440;DHT22;60446;50.752;4.352;2023-03-24T14:57:59;13.70;65.40
72440;DHT22;60446;50.752;4.352;2023-03-24T15:00:50;13.70;63.30
72440;DHT22;60446;50.752;4.352;2023-03-24T15:06:22;13.70;62.10
72440;DHT22;60446;50.752;4.352;2023-03-24T15:08:58;13.70;62.80
72440;DHT22;60446;50.752;4.352;2023-03-24T15:11:34;13.80;62.60
72440;DHT22;60446;50.752;4.352;2023-03-24T15:14:04;13.90;60.60
72440;DHT22;60446;50.752;4.352;2023-03-24T15:16:34;13.90;62.20
72440;DHT22;60446;50.752;4.352;2023-03-24T15:19:09;14.20;61.60
72440;DHT22;60446;50.752;4.352;2023-03-24T15:21:50;14.60;60.90
72440;DHT22;60446;50.752;4.352;2023-03-24T15:24:34;14.10;60.50
72440;DHT22;60446;50.752;4.352;2023-03-24T15:29:37;12.90;62.20
72440;DHT22;60446;50.752;4.352;2023-03-24T15:32:18;13.00;63.30
72440;DHT22;60446;50.752;4.352;2023-03-24T15:34:54;12.80;64.70
72440;DHT22;60446;50.752;4.352;2023-03-24T15:39:53;12.90;65.30
72440;DHT22;60446;50.752;4.352;2023-03-24T15:42:44;12.90;65.00
72440;DHT22;60446;50.752;4.352;2023-03-24T15:47:54;12.80;67.10
72440;DHT22;60446;50.752;4.352;2023-03-24T15:50:35;12.70;68.40
72440;DHT22;60446;50.752;4.352;2023-03-24T15:55:42;12.60;70.70
72440;DHT22;60446;50.752;4.352;2023-03-24T15:58:25;12.90;72.30
72440;DHT22;60446;50.752;4.352;2023-03-24T16:01:01;13.40;70.20
72440;DHT22;60446;50.752;4.352;2023-03-24T16:03:32;13.30;68.90
72440;DHT22;60446;50.752;4.352;2023-03-24T16:06:00;13.20;68.80
72440;DHT22;60446;50.752;4.352;2023-03-24T16:08:34;13.00;70.20
72440;DHT22;60446;50.752;4.352;2023-03-24T16:11:09;12.80;70.80
72440;DHT22;60446;50.752;4.352;2023-03-24T16:13:44;12.70;70.70
72440;DHT22;60446;50.752;4.352;2023-03-24T16:18:41;12.50;71.70
72440;DHT22;60446;50.752;4.352;2023-03-24T16:21:13;12.40;70.50
72440;DHT22;60446;50.752;4.352;2023-03-24T16:23:46;12.30;69.50
72440;DHT22;60446;50.752;4.352;2023-03-24T16:26:17;12.30;70.20
72440;DHT22;60446;50.752;4.352;2023-03-24T16:28:45;12.30;69.20
72440;DHT22;60446;50.752;4.352;2023-03-24T16:31:31;12.20;69.40
72440;DHT22;60446;50.752;4.352;2023-03-24T16:34:00;12.20;69.00
72440;DHT22;60446;50.752;4.352;2023-03-24T16:36:28;12.20;68.30
72440;DHT22;60446;50.752;4.352;2023-03-24T16:38:57;12.20;68.80
72440;DHT22;60446;50.752;4.352;2023-03-24T16:41:25;12.10;68.50
72440;DHT22;60446;50.752;4.352;2023-03-24T16:43:53;12.10;68.90
72440;DHT22;60446;50.752;4.352;2023-03-24T16:48:53;11.90;70.20
72440;DHT22;60446;50.752;4.352;2023-03-24T16:51:21;11.80;70.30
72440;DHT22;60446;50.752;4.352;2023-03-24T16:53:48;11.70;72.60
72440;DHT22;60446;50.752;4.352;2023-03-24T16:56:18;11.40;71.20
72440;DHT22;60446;50.752;4.352;2023-03-24T16:58:46;11.30;71.70
72440;DHT22;60446;50.752;4.352;2023-03-24T17:04:19;10.90;74.80
72440;DHT22;60446;50.752;4.352;2023-03-24T17:06:52;10.70;75.90
72440;DHT22;60446;50.752;4.352;2023-03-24T17:09:20;10.40;77.90
72440;DHT22;60446;50.752;4.352;2023-03-24T17:11:51;10.10;77.80
72440;DHT22;60446;50.752;4.352;2023-03-24T17:14:20;9.80;77.10
72440;DHT22;60446;50.752;4.352;2023-03-24T17:16:47;9.60;77.70
72440;DHT22;60446;50.752;4.352;2023-03-24T17:19:22;9.30;78.30
72440;DHT22;60446;50.752;4.352;2023-03-24T17:22:05;9.10;78.50
72440;DHT22;60446;50.752;4.352;2023-03-24T17:24:33;9.10;79.40
72440;DHT22;60446;50.752;4.352;2023-03-24T17:27:03;9.10;79.50
72440;DHT22;60446;50.752;4.352;2023-03-24T17:29:36;9.00;78.40
72440;DHT22;60446;50.752;4.352;2023-03-24T17:32:03;9.00;78.70
72440;DHT22;60446;50.752;4.352;2023-03-24T17:34:31;9.10;79.00
72440;DHT22;60446;50.752;4.352;2023-03-24T17:36:58;9.10;79.00
72440;DHT22;60446;50.752;4.352;2023-03-24T17:39:25;9.10;79.10
72440;DHT22;60446;50.752;4.352;2023-03-24T17:41:52;9.10;78.80
72440;DHT22;60446;50.752;4.352;2023-03-24T17:44:23;9.10;79.10
72440;DHT22;60446;50.752;4.352;2023-03-24T17:46:50;9.20;78.30
72440;DHT22;60446;50.752;4.352;2023-03-24T17:49:17;9.30;79.10
72440;DHT22;60446;50.752;4.352;2023-03-24T17:51:44;9.30;78.70
72440;DHT22;60446;50.752;4.352;2023-03-24T17:54:12;9.30;79.00
72440;DHT22;60446;50.752;4.352;2023-03-24T17:56:39;9.40;78.80
72440;DHT22;60446;50.752;4.352;2023-03-24T17:59:06;9.30;78.80
72440;DHT22;60446;50.752;4.352;2023-03-24T18:01:33;9.30;78.40
72440;DHT22;60446;50.752;4.352;2023-03-24T18:04:05;9.20;78.50
72440;DHT22;60446;50.752;4.352;2023-03-24T18:06:33;9.10;78.30
72440;DHT22;60446;50.752;4.352;2023-03-24T18:09:00;9.00;78.30
72440;DHT22;60446;50.752;4.352;2023-03-24T18:11:28;8.90;79.10
72440;DHT22;60446;50.752;4.352;2023-03-24T18:13:55;8.80;79.30
72440;DHT22;60446;50.752;4.352;2023-03-24T18:16:22;8.80;79.70
72440;DHT22;60446;50.752;4.352;2023-03-24T18:18:52;8.70;79.90
72440;DHT22;60446;50.752;4.352;2023-03-24T18:21:19;8.70;80.10
72440;DHT22;60446;50.752;4.352;2023-03-24T18:23:47;8.70;80.00
72440;DHT22;60446;50.752;4.352;2023-03-24T18:26:16;8.60;80.20
72440;DHT22;60446;50.752;4.352;2023-03-24T18:28:44;8.50;79.80
72440;DHT22;60446;50.752;4.352;2023-03-24T18:31:13;8.50;79.70
72440;DHT22;60446;50.752;4.352;2023-03-24T18:33:43;8.50;79.50
72440;DHT22;60446;50.752;4.352;2023-03-24T18:36:13;8.40;79.60
72440;DHT22;60446;50.752;4.352;2023-03-24T18:39:07;8.40;79.10
72440;DHT22;60446;50.752;4.352;2023-03-24T18:41:35;8.40;78.60
72440;DHT22;60446;50.752;4.352;2023-03-24T18:44:05;8.40;77.90
72440;DHT22;60446;50.752;4.352;2023-03-24T18:46:34;8.40;78.80
72440;DHT22;60446;50.752;4.352;2023-03-24T18:49:02;8.30;77.50
72440;DHT22;60446;50.752;4.352;2023-03-24T18:51:30;8.30;78.10
72440;DHT22;60446;50.752;4.352;2023-03-24T18:53:58;8.30;76.60
72440;DHT22;60446;50.752;4.352;2023-03-24T18:56:26;8.30;78.10
72440;DHT22;60446;50.752;4.352;2023-03-24T18:58:53;8.20;77.50
72440;DHT22;60446;50.752;4.352;2023-03-24T19:01:20;8.20;78.00
72440;DHT22;60446;50.752;4.352;2023-03-24T19:03:52;8.20;77.80
72440;DHT22;60446;50.752;4.352;2023-03-24T19:06:19;8.20;77.50